sensor_id;sensor_type;location;lat;lon;timestamp;pressure;altitude;pressure_sealevel;temperature;humidity
25650;BME280;13505;45.196;5.696;2022-09-17T04:00:53;99044.56;;;14.73;60.01
25650;BME280;13505;45.196;5.696;2022-09-17T04:05:46;99039.78;;;14.78;59.22
25650;BME280;13505;45.196;5.696;2022-09-17T04:10:36;99049.22;;;14.97;59.70
25650;BME280;13505;45.196;5.696;2022-09-17T04:15:26;99043.66;;;14.87;59.96
25650;BME280;13505;45.196;5.696;2022-09-17T04:20:17;99042.91;;;14.85;59.50
25650;BME280;13505;45.196;5.696;2022-09-17T04:25:07;99041.03;;;14.73;59.10
25650;BME280;13505;45.196;5.696;2022-09-17T04:29:58;99046.94;;;14.78;59.92
25650;BME280;13505;45.196;5.696;2022-09-17T04:34:48;99063.16;;;14.59;59.89
25650;BME280;13505;45.196;5.696;2022-09-17T04:39:38;99071.13;;;14.73;59.28
25650;BME280;13505;45.196;5.696;2022-09-17T04:44:29;99082.59;;;14.59;60.42
25650;BME280;13505;45.196;5.696;2022-09-17T04:49:19;99086.03;;;14.47;60.64
25650;BME280;13505;45.196;5.696;2022-09-17T04:54:09;99084.41;;;14.44;60.54
25650;BME280;13505;45.196;5.696;2022-09-17T04:59:00;99091.06;;;14.37;61.35
25650;BME280;13505;45.196;5.696;2022-09-17T05:03:50;99101.28;;;14.43;60.60
25650;BME280;13505;45.196;5.696;2022-09-17T05:08:40;99108.38;;;14.43;61.34
25650;BME280;13505;45.196;5.696;2022-09-17T05:13:31;99111.63;;;14.19;62.14
25650;BME280;13505;45.196;5.696;2022-09-17T05:18:22;99108.03;;;14.20;61.66
25650;BME280;13505;45.196;5.696;2022-09-17T05:23:12;99117.34;;;14.13;62.79
25650;BME280;13505;45.196;5.696;2022-09-17T05:28:03;99115.69;;;14.24;62.36
25650;BME280;13505;45.196;5.696;2022-09-17T05:33:04;99123.38;;;14.29;62.64
25650;BME280;13505;45.196;5.696;2022-09-17T05:38:00;99118.94;;;14.30;62.25
25650;BME280;13505;45.196;5.696;2022-09-17T05:42:51;99123.38;;;14.29;61.73
25650;BME280;13505;45.196;5.696;2022-09-17T05:47:41;99131.13;;;14.32;62.07
25650;BME280;13505;45.196;5.696;2022-09-17T05:52:31;99135.13;;;14.40;61.24
25650;BME280;13505;45.196;5.696;2022-09-17T05:57:22;99146.13;;;14.19;61.95
25650;BME280;13505;45.196;5.696;2022-09-17T06:02:12;99150.56;;;14.33;61.46
25650;BME280;13505;45.196;5.696;2022-09-17T06:07:04;99164.41;;;14.23;62.23
25650;BME280;13505;45.196;5.696;2022-09-17T06:11:58;99156.34;;;14.10;62.30
25650;BME280;13505;45.196;5.696;2022-09-17T06:16:48;99167.63;;;14.14;61.67
25650;BME280;13505;45.196;5.696;2022-09-17T06:21:38;99169.50;;;14.27;61.31
25650;BME280;13505;45.196;5.696;2022-09-17T06:26:29;99170.28;;;14.29;60.61
25650;BME280;13505;45.196;5.696;2022-09-17T06:31:19;99178.31;;;14.42;59.56
25650;BME280;13505;45.196;5.696;2022-09-17T06:36:10;99174.34;;;14.05;60.44
25650;BME280;13505;45.196;5.696;2022-09-17T06:41:01;99171.41;;;14.39;59.70
25650;BME280;13505;45.196;5.696;2022-09-17T06:45:53;99179.66;;;14.49;58.83
25650;BME280;13505;45.196;5.696;2022-09-17T06:50:43;99177.19;;;14.60;58.03
25650;BME280;13505;45.196;5.696;2022-09-17T06:55:34;99182.13;;;14.52;57.48
25650;BME280;13505;45.196;5.696;2022-09-17T07:00:24;99183.38;;;14.61;58.03
25650;BME280;13505;45.196;5.696;2022-09-17T07:05:16;99177.19;;;14.75;56.87
25650;BME280;13505;45.196;5.696;2022-09-17T07:10:06;99174.91;;;14.98;56.43
25650;BME280;13505;45.196;5.696;2022-09-17T07:14:57;99169.25;;;15.57;54.36
25650;BME280;13505;45.196;5.696;2022-09-17T07:19:47;99176.09;;;15.74;53.46
25650;BME280;13505;45.196;5.696;2022-09-17T07:24:37;99182.53;;;16.11;52.57
25650;BME280;13505;45.196;5.696;2022-09-17T07:29:28;99177.75;;;16.42;50.99
25650;BME280;13505;45.196;5.696;2022-09-17T07:34:19;99172.41;;;16.55;50.98
25650;BME280;13505;45.196;5.696;2022-09-17T07:39:09;99166.22;;;16.67;50.25
25650;BME280;13505;45.196;5.696;2022-09-17T07:44:02;99172.94;;;16.97;49.35
25650;BME280;13505;45.196;5.696;2022-09-17T07:48:52;99163.56;;;17.05;48.34
25650;BME280;13505;45.196;5.696;2022-09-17T07:53:43;99158.56;;;17.24;48.60
25650;BME280;13505;45.196;5.696;2022-09-17T07:58:33;99168.63;;;17.21;48.27
25650;BME280;13505;45.196;5.696;2022-09-17T08:03:25;99167.97;;;17.41;47.65
25650;BME280;13505;45.196;5.696;2022-09-17T08:08:16;99162.97;;;17.61;46.69
25650;BME280;13505;45.196;5.696;2022-09-17T08:13:06;99162.09;;;17.85;46.26
25650;BME280;13505;45.196;5.696;2022-09-17T08:17:56;99168.69;;;18.04;45.59
25650;BME280;13505;45.196;5.696;2022-09-17T08:22:47;99168.22;;;18.10;45.30
25650;BME280;13505;45.196;5.696;2022-09-17T08:27:37;99174.03;;;18.26;44.52
25650;BME280;13505;45.196;5.696;2022-09-17T08:32:30;99194.56;;;18.37;44.42
25650;BME280;13505;45.196;5.696;2022-09-17T08:37:21;99181.84;;;18.30;44.08
25650;BME280;13505;45.196;5.696;2022-09-17T08:42:18;99182.06;;;18.26;44.67
25650;BME280;13505;45.196;5.696;2022-09-17T09:07:17;99168.69;;;19.72;40.81
25650;BME280;13505;45.196;5.696;2022-09-17T09:12:22;99159.38;;;20.08;40.84
25650;BME280;13505;45.196;5.696;2022-09-17T09:17:17;99156.47;;;20.21;39.82
25650;BME280;13505;45.196;5.696;2022-09-17T09:22:25;99159.56;;;20.17;39.24
25650;BME280;13505;45.196;5.696;2022-09-17T09:27:28;99156.59;;;20.41;39.08
25650;BME280;13505;45.196;5.696;2022-09-17T09:32:30;99154.09;;;20.18;38.37
25650;BME280;13505;45.196;5.696;2022-09-17T09:37:30;99137.66;;;20.33;38.32
25650;BME280;13505;45.196;5.696;2022-09-17T09:42:32;99136.94;;;20.72;38.10
25650;BME280;13505;45.196;5.696;2022-09-17T09:57:38;99142.50;;;19.75;38.80
25650;BME280;13505;45.196;5.696;2022-09-17T10:02:31;99146.22;;;20.27;38.18
25650;BME280;13505;45.196;5.696;2022-09-17T10:07:22;99153.50;;;19.93;37.52
25650;BME280;13505;45.196;5.696;2022-09-17T10:17:23;99156.66;;;19.45;38.23
25650;BME280;13505;45.196;5.696;2022-09-17T10:22:22;99147.78;;;19.00;39.47
25650;BME280;13505;45.196;5.696;2022-09-17T10:27:16;99153.50;;;19.07;38.71
25650;BME280;13505;45.196;5.696;2022-09-17T10:32:16;99153.03;;;18.90;40.00
25650;BME280;13505;45.196;5.696;2022-09-17T10:37:46;99169.53;;;18.84;40.09
25650;BME280;13505;45.196;5.696;2022-09-17T10:42:36;99164.84;;;18.42;41.62
25650;BME280;13505;45.196;5.696;2022-09-17T10:47:30;99152.13;;;18.34;41.40
25650;BME280;13505;45.196;5.696;2022-09-17T10:52:31;99164.84;;;18.42;41.53
25650;BME280;13505;45.196;5.696;2022-09-17T10:57:36;99172.47;;;18.81;41.47
25650;BME280;13505;45.196;5.696;2022-09-17T11:07:50;99176.00;;;18.81;41.13
25650;BME280;13505;45.196;5.696;2022-09-17T11:27:59;99170.78;;;20.32;38.45
25650;BME280;13505;45.196;5.696;2022-09-17T11:37:57;99166.50;;;20.60;38.60
25650;BME280;13505;45.196;5.696;2022-09-17T11:47:53;99176.41;;;21.11;37.68
25650;BME280;13505;45.196;5.696;2022-09-17T11:57:48;99180.69;;;21.43;38.13
25650;BME280;13505;45.196;5.696;2022-09-17T12:02:58;99169.25;;;21.60;37.35
25650;BME280;13505;45.196;5.696;2022-09-17T12:07:55;99168.69;;;21.57;37.71
25650;BME280;13505;45.196;5.696;2022-09-17T12:12:56;99176.59;;;21.68;37.18
25650;BME280;13505;45.196;5.696;2022-09-17T12:18:02;99170.63;;;22.04;36.85
25650;BME280;13505;45.196;5.696;2022-09-17T12:22:56;99171.69;;;22.31;35.84
25650;BME280;13505;45.196;5.696;2022-09-17T12:28:04;99161.41;;;22.16;36.06
25650;BME280;13505;45.196;5.696;2022-09-17T12:33:25;99177.59;;;22.44;36.58
25650;BME280;13505;45.196;5.696;2022-09-17T12:59:01;99164.28;;;22.81;34.73
25650;BME280;13505;45.196;5.696;2022-09-17T13:03:59;99143.47;;;22.83;34.79
25650;BME280;13505;45.196;5.696;2022-09-17T13:19:43;99148.44;;;22.50;34.85
25650;BME280;13505;45.196;5.696;2022-09-17T13:24:38;99147.41;;;22.61;34.43
25650;BME280;13505;45.196;5.696;2022-09-17T13:34:35;99147.72;;;22.57;35.24
25650;BME280;13505;45.196;5.696;2022-09-17T13:44:36;99144.75;;;22.51;34.63
25650;BME280;13505;45.196;5.696;2022-09-17T13:49:27;99156.53;;;22.78;34.85
25650;BME280;13505;45.196;5.696;2022-09-17T13:54:20;99171.19;;;22.55;34.17
25650;BME280;13505;45.196;5.696;2022-09-17T13:59:23;99160.34;;;22.37;35.12
25650;BME280;13505;45.196;5.696;2022-09-17T14:09:48;99152.84;;;22.41;35.74
25650;BME280;13505;45.196;5.696;2022-09-17T14:14:46;99157.50;;;22.49;34.46
25650;BME280;13505;45.196;5.696;2022-09-17T14:19:48;99150.22;;;22.31;35.55
25650;BME280;13505;45.196;5.696;2022-09-17T14:34:36;99152.25;;;21.99;35.86
25650;BME280;13505;45.196;5.696;2022-09-17T14:39:35;99150.00;;;22.05;35.70
25650;BME280;13505;45.196;5.696;2022-09-17T14:44:27;99157.53;;;21.71;36.29
25650;BME280;13505;45.196;5.696;2022-09-17T14:49:37;99156.09;;;21.87;36.49
25650;BME280;13505;45.196;5.696;2022-09-17T14:54:30;99168.25;;;21.71;37.29
25650;BME280;13505;45.196;5.696;2022-09-17T15:04:41;99181.97;;;21.39;37.36
25650;BME280;13505;45.196;5.696;2022-09-17T15:09:31;99180.25;;;21.38;36.98
25650;BME280;13505;45.196;5.696;2022-09-17T15:14:26;99178.00;;;21.43;37.77
25650;BME280;13505;45.196;5.696;2022-09-17T15:19:28;99179.00;;;21.32;37.85
25650;BME280;13505;45.196;5.696;2022-09-17T15:29:28;99183.41;;;20.92;37.54
25650;BME280;13505;45.196;5.696;2022-09-17T15:34:21;99184.34;;;20.81;37.93
25650;BME280;13505;45.196;5.696;2022-09-17T15:39:37;99187.38;;;20.57;38.97
25650;BME280;13505;45.196;5.696;2022-09-17T15:44:28;99195.38;;;20.47;39.80
25650;BME280;13505;45.196;5.696;2022-09-17T15:49:27;99184.28;;;20.30;40.42
25650;BME280;13505;45.196;5.696;2022-09-17T15:54:29;99200.94;;;20.34;39.92
25650;BME280;13505;45.196;5.696;2022-09-17T15:59:30;99204.69;;;20.21;39.87
25650;BME280;13505;45.196;5.696;2022-09-17T16:04:27;99214.59;;;20.10;40.51
25650;BME280;13505;45.196;5.696;2022-09-17T16:14:27;99228.63;;;19.69;40.68
25650;BME280;13505;45.196;5.696;2022-09-17T16:19:17;99226.00;;;19.58;41.36
25650;BME280;13505;45.196;5.696;2022-09-17T16:24:07;99228.41;;;19.28;41.81
25650;BME280;13505;45.196;5.696;2022-09-17T16:29:02;99226.06;;;19.02;42.19
25650;BME280;13505;45.196;5.696;2022-09-17T16:33:53;99235.00;;;18.90;42.72
25650;BME280;13505;45.196;5.696;2022-09-17T16:38:44;99237.69;;;18.78;42.97
25650;BME280;13505;45.196;5.696;2022-09-17T16:43:36;99231.97;;;18.49;43.31
25650;BME280;13505;45.196;5.696;2022-09-17T16:48:26;99227.47;;;18.38;42.96
25650;BME280;13505;45.196;5.696;2022-09-17T16:53:17;99230.63;;;18.32;43.24
25650;BME280;13505;45.196;5.696;2022-09-17T16:58:07;99240.66;;;18.17;43.44
25650;BME280;13505;45.196;5.696;2022-09-17T17:02:58;99251.94;;;18.09;43.85
25650;BME280;13505;45.196;5.696;2022-09-17T17:07:48;99263.19;;;17.77;44.23
25650;BME280;13505;45.196;5.696;2022-09-17T17:12:38;99261.00;;;17.82;44.88
25650;BME280;13505;45.196;5.696;2022-09-17T17:17:29;99264.50;;;17.71;44.67
25650;BME280;13505;45.196;5.696;2022-09-17T17:22:20;99265.19;;;17.62;45.12
25650;BME280;13505;45.196;5.696;2022-09-17T17:27:10;99268.28;;;17.55;44.79
25650;BME280;13505;45.196;5.696;2022-09-17T17:32:03;99271.63;;;17.46;44.65
25650;BME280;13505;45.196;5.696;2022-09-17T17:36:54;99277.81;;;17.47;45.46
25650;BME280;13505;45.196;5.696;2022-09-17T17:41:44;99277.13;;;17.32;44.79
25650;BME280;13505;45.196;5.696;2022-09-17T17:46:34;99288.97;;;17.27;44.45
25650;BME280;13505;45.196;5.696;2022-09-17T17:51:25;99284.50;;;17.15;44.63
25650;BME280;13505;45.196;5.696;2022-09-17T17:56:16;99286.44;;;17.13;44.55
25650;BME280;13505;45.196;5.696;2022-09-17T18:01:16;99294.75;;;17.08;44.15
25650;BME280;13505;45.196;5.696;2022-09-17T18:06:08;99295.22;;;17.02;44.44
25650;BME280;13505;45.196;5.696;2022-09-17T18:10:58;99314.16;;;16.97;45.09
25650;BME280;13505;45.196;5.696;2022-09-17T18:15:56;99305.09;;;16.87;45.26
25650;BME280;13505;45.196;5.696;2022-09-17T18:20:49;99315.63;;;16.88;44.47
25650;BME280;13505;45.196;5.696;2022-09-17T18:25:40;99329.41;;;16.82;44.58
25650;BME280;13505;45.196;5.696;2022-09-17T18:30:31;99329.63;;;16.79;44.08
25650;BME280;13505;45.196;5.696;2022-09-17T18:35:21;99331.84;;;16.72;43.63
25650;BME280;13505;45.196;5.696;2022-09-17T18:40:12;99343.47;;;16.58;43.53
25650;BME280;13505;45.196;5.696;2022-09-17T18:45:03;99362.84;;;16.60;44.18
25650;BME280;13505;45.196;5.696;2022-09-17T18:49:53;99357.59;;;16.59;44.27
25650;BME280;13505;45.196;5.696;2022-09-17T18:54:43;99369.00;;;16.48;44.53
25650;BME280;13505;45.196;5.696;2022-09-17T18:59:35;99373.56;;;16.46;44.61
25650;BME280;13505;45.196;5.696;2022-09-17T19:04:25;99375.47;;;16.44;44.50
25650;BME280;13505;45.196;5.696;2022-09-17T19:09:17;99383.16;;;16.36;44.75
25650;BME280;13505;45.196;5.696;2022-09-17T19:14:08;99391.53;;;16.29;45.21
25650;BME280;13505;45.196;5.696;2022-09-17T19:18:59;99391.53;;;16.29;45.11
25650;BME280;13505;45.196;5.696;2022-09-17T19:23:50;99410.00;;;16.18;45.13
25650;BME280;13505;45.196;5.696;2022-09-17T19:28:41;99404.91;;;16.15;45.12
25650;BME280;13505;45.196;5.696;2022-09-17T19:33:31;99409.72;;;15.95;44.80
25650;BME280;13505;45.196;5.696;2022-09-17T19:38:24;99400.78;;;15.96;44.72
25650;BME280;13505;45.196;5.696;2022-09-17T19:43:14;99402.84;;;15.91;44.39
25650;BME280;13505;45.196;5.696;2022-09-17T19:48:05;99396.75;;;15.89;44.74
25650;BME280;13505;45.196;5.696;2022-09-17T19:52:55;99411.81;;;15.61;43.53
25650;BME280;13505;45.196;5.696;2022-09-17T19:57:45;99399.25;;;15.77;44.85
25650;BME280;13505;45.196;5.696;2022-09-17T20:02:36;99402.63;;;15.67;45.09
25650;BME280;13505;45.196;5.696;2022-09-17T20:07:27;99410.47;;;15.68;45.08
25650;BME280;13505;45.196;5.696;2022-09-17T20:12:18;99404.31;;;15.68;44.64
25650;BME280;13505;45.196;5.696;2022-09-17T20:17:08;99413.84;;;15.57;45.04
25650;BME280;13505;45.196;5.696;2022-09-17T20:21:59;99416.66;;;15.54;45.02
25650;BME280;13505;45.196;5.696;2022-09-17T20:26:49;99415.38;;;15.47;44.82
25650;BME280;13505;45.196;5.696;2022-09-17T20:31:39;99406.53;;;15.32;44.64
25650;BME280;13505;45.196;5.696;2022-09-17T20:36:32;99408.53;;;15.28;45.15
25650;BME280;13505;45.196;5.696;2022-09-17T20:41:25;99412.13;;;15.27;44.65
25650;BME280;13505;45.196;5.696;2022-09-17T20:46:17;99406.06;;;15.25;45.34
25650;BME280;13505;45.196;5.696;2022-09-17T20:51:16;99402.91;;;15.18;45.66
25650;BME280;13505;45.196;5.696;2022-09-17T20:56:16;99421.22;;;15.09;45.47
25650;BME280;13505;45.196;5.696;2022-09-17T21:01:11;99426.34;;;15.12;45.76
25650;BME280;13505;45.196;5.696;2022-09-17T21:06:02;99426.53;;;14.94;45.26
25650;BME280;13505;45.196;5.696;2022-09-17T21:10:53;99429.28;;;14.92;45.92
25650;BME280;13505;45.196;5.696;2022-09-17T21:15:59;99440.16;;;14.57;45.14
25650;BME280;13505;45.196;5.696;2022-09-17T21:20:50;99449.81;;;14.74;45.43
25650;BME280;13505;45.196;5.696;2022-09-17T21:25:40;99444.75;;;14.70;44.91
25650;BME280;13505;45.196;5.696;2022-09-17T21:30:31;99449.34;;;14.82;45.90
25650;BME280;13505;45.196;5.696;2022-09-17T21:35:21;99443.09;;;14.83;45.08
25650;BME280;13505;45.196;5.696;2022-09-17T21:40:11;99451.34;;;14.62;44.60
25650;BME280;13505;45.196;5.696;2022-09-17T21:45:02;99450.25;;;14.67;43.90
25650;BME280;13505;45.196;5.696;2022-09-17T21:49:52;99454.94;;;14.77;44.81
25650;BME280;13505;45.196;5.696;2022-09-17T21:54:43;99451.53;;;14.59;44.06
25650;BME280;13505;45.196;5.696;2022-09-17T21:59:33;99448.44;;;14.67;45.33
